Aeroporto :
LOGIN :

Iscrizione | Disclaimer

   EN    FR    IT 

 










Sommario :    VFR   VFR Marginale   IFR   IFR Intensivo   IFR Molto Intensivo
Visibilità : 
Base nubi : 
>= 8 km
>= 3000ft
5 / 8 km
1000 / 3000 ft
1500m / 5 km
500 / 1000 ft
800 / 1500m
200 / 500 ft
< 800m
< 200 ft
Simboli :   Temporali  Nebbia  Neve Forte  Precipitazioni Forti  Vento > 20 kt
SIGMETs :   Varie  Temporali  Ghiacco  Turbolenza  Onda orograficha  Ceneri Vulcaniche






- Altitudine del aeroporto : 82 ft
- Codice IATA : QIE


LFMI - Istres

ULTIMO METAR :
  • 231230Z AUTO 22005KT 170V260 9999 FEW035 26/17 Q1010 NOSIG

METARs OBSOLETI :
  • 231200Z AUTO 29005KT 240V320 9999 FEW034 25/16 Q1011 NOSIG
  • 231130Z AUTO 27003KT 190V320 9999 FEW032 25/16 Q1011 NOSIG
  • 231100Z AUTO 35004KT 280V030 9999 FEW029 24/16 Q1011 NOSIG
  • 231030Z AUTO 33004KT 290V020 9999 SCT027 SCT032 23/16 Q1011 NOSIG
  • 231000Z AUTO VRB03KT 9999 SCT024 23/16 Q1011 NOSIG

TAF TAF LFMI
Valido dal 23 a 09 ore il 24 a 09 ore UTC


230800Z 2309/2409 VRB03KT CAVOK
TEMPO 2314/2317 22010KT
PROB30
TEMPO 2322/2406 3000 BR BKN005



MetMap, La meteo Aeronautica in un colpo d'occhio ! - Copyright ORBIFLY Dicembre 2007 - Disclaimer

ORBIFLY MET'MAP TEAM :

Programmazione e sviluppo : Alexandra Zaïnal
Concezione : Baudouin d'Aumeries
Aiuto per la programmazione : Marc-Olivier Méhu
Supporto tecnico e logistico : Manuel Goepfert
Aiuto per la traduzione : Arnaldo La Scala

Contatto : metmap@orbifly.com




FONTI E CREDITI :

   NOAA